createdAt,value
2023-03-05T00:04:36.439Z,5.03
2023-03-05T00:10:00.834Z,3.93
2023-03-05T00:15:23.208Z,3.20
2023-03-05T00:20:46.039Z,5.27
2023-03-05T00:26:08.310Z,4.00
2023-03-05T00:31:34.374Z,3.47
2023-03-05T00:36:56.978Z,3.10
2023-03-05T00:42:20.060Z,2.97
2023-03-05T00:47:42.460Z,2.87
2023-03-05T00:53:04.900Z,3.50
2023-03-05T00:58:27.503Z,3.73
2023-03-05T01:03:52.864Z,3.47
2023-03-05T01:09:15.035Z,3.60
2023-03-05T01:14:37.294Z,3.50
2023-03-05T01:20:00.069Z,4.07
2023-03-05T01:25:22.563Z,4.53
2023-03-05T01:30:44.862Z,3.67
2023-03-05T01:36:11.461Z,3.77
2023-03-05T01:41:34.461Z,2.87
2023-03-05T01:46:57.034Z,2.43
2023-03-05T01:52:22.972Z,2.80
2023-03-05T01:57:50.105Z,2.20
2023-03-05T02:03:13.722Z,2.10
2023-03-05T02:08:37.929Z,1.60
2023-03-05T02:14:02.298Z,1.97
2023-03-05T02:19:24.446Z,2.03
2023-03-05T02:24:46.668Z,2.07
2023-03-05T02:30:09.549Z,1.50
2023-03-05T02:35:31.857Z,1.83
2023-03-05T02:40:54.363Z,1.57
2023-03-05T02:46:17.847Z,1.80
2023-03-05T02:51:40.020Z,1.73
2023-03-05T02:57:03.002Z,1.83
2023-03-05T03:02:25.562Z,1.60
2023-03-05T03:07:48.554Z,1.67
2023-03-05T03:13:11.017Z,1.73
2023-03-05T03:18:33.634Z,1.60
2023-03-05T03:23:55.899Z,1.33
2023-03-05T03:29:17.975Z,1.80
2023-03-05T03:34:40.737Z,1.40
2023-03-05T03:40:05.707Z,1.27
2023-03-05T03:45:28.088Z,1.83
2023-03-05T03:50:50.559Z,1.30
2023-03-05T03:56:12.843Z,1.20
2023-03-05T04:01:35.321Z,1.30
2023-03-05T04:06:57.937Z,1.73
2023-03-05T04:12:21.329Z,1.00
2023-03-05T04:17:43.577Z,1.20
2023-03-05T04:23:05.941Z,1.40
2023-03-05T04:28:28.194Z,1.83
2023-03-05T04:33:50.865Z,1.47
2023-03-05T04:39:13.435Z,1.37
2023-03-05T04:44:36.178Z,1.93
2023-03-05T04:49:58.362Z,1.47
2023-03-05T04:55:20.852Z,1.53
2023-03-05T05:00:43.200Z,1.60
2023-03-05T05:06:05.793Z,1.50
2023-03-05T05:11:28.381Z,1.37
2023-03-05T05:16:50.586Z,1.53
2023-03-05T05:22:12.804Z,1.30
2023-03-05T05:27:35.197Z,1.23
2023-03-05T05:32:57.879Z,1.30
2023-03-05T05:38:20.252Z,1.17
2023-03-05T05:43:42.865Z,1.37
2023-03-05T05:49:05.339Z,1.20
2023-03-05T05:54:27.788Z,1.27
2023-03-05T05:59:49.791Z,1.23
2023-03-05T06:05:14.790Z,1.47
2023-03-05T06:10:37.185Z,2.00
2023-03-05T06:16:03.110Z,1.43
2023-03-05T06:21:25.920Z,1.50
2023-03-05T06:26:49.247Z,1.20
2023-03-05T06:32:11.363Z,1.30
2023-03-05T06:37:33.913Z,1.27
2023-03-05T06:42:56.374Z,1.57
2023-03-05T06:48:18.615Z,2.37
2023-03-05T06:53:41.419Z,1.80
2023-03-05T06:59:04.639Z,1.30
2023-03-05T07:04:26.794Z,1.60
2023-03-05T07:09:50.404Z,2.10
2023-03-05T07:15:12.826Z,2.50
2023-03-05T07:20:38.054Z,1.73
2023-03-05T07:26:04.614Z,1.40
2023-03-05T07:31:30.986Z,1.70
2023-03-05T07:36:53.419Z,1.80
2023-03-05T07:42:15.905Z,2.00
2023-03-05T07:47:47.923Z,1.33
2023-03-05T07:53:10.693Z,1.20
2023-03-05T07:58:33.139Z,1.63
2023-03-05T08:03:55.576Z,1.20
2023-03-05T08:09:18.979Z,1.30
2023-03-05T08:14:41.264Z,1.30
2023-03-05T08:20:05.594Z,1.30
2023-03-05T08:25:28.394Z,1.30
2023-03-05T08:30:50.897Z,1.63
2023-03-05T08:36:13.483Z,2.30
2023-03-05T08:41:36.417Z,1.57
2023-03-05T08:46:58.599Z,1.30
2023-03-05T08:52:24.431Z,1.23
2023-03-05T08:57:46.927Z,1.50
2023-03-05T09:03:09.376Z,1.13
2023-03-05T09:08:32.140Z,1.30
2023-03-05T09:13:54.746Z,1.23
2023-03-05T09:19:16.888Z,1.30
2023-03-05T09:24:39.256Z,1.43
2023-03-05T09:30:01.675Z,13.33
2023-03-05T09:35:24.055Z,1.27
2023-03-05T09:40:58.610Z,1.43
2023-03-05T09:46:57.052Z,1.10
2023-03-05T09:52:47.367Z,0.90
2023-03-05T09:58:38.450Z,1.20
2023-03-05T10:04:10.116Z,1.20
2023-03-05T10:09:55.023Z,1.70
2023-03-05T10:15:57.201Z,1.70
2023-03-05T10:21:39.206Z,1.33
2023-03-05T10:27:14.744Z,1.27
2023-03-05T10:33:14.718Z,1.23
2023-03-05T10:38:49.457Z,1.23
2023-03-05T10:44:20.549Z,1.50
2023-03-05T10:49:53.170Z,1.00
2023-03-05T10:55:22.021Z,1.10
2023-03-05T11:01:22.075Z,1.63
2023-03-05T11:06:45.970Z,1.90
2023-03-05T11:12:20.450Z,1.70
2023-03-05T11:17:49.136Z,1.30
2023-03-05T11:23:26.373Z,1.40
2023-03-05T11:28:51.679Z,1.07
2023-03-05T11:34:16.902Z,1.20
2023-03-05T11:39:40.415Z,1.10
2023-03-05T11:45:04.336Z,1.40
2023-03-05T11:50:32.062Z,1.30
2023-03-05T11:56:24.324Z,1.87
2023-03-05T12:01:50.564Z,1.33
2023-03-05T12:07:17.001Z,1.40
2023-03-05T12:12:42.169Z,1.70
2023-03-05T12:18:33.413Z,0.87
2023-03-05T12:24:05.007Z,1.33
2023-03-05T12:29:33.380Z,1.43
2023-03-05T12:34:55.753Z,1.30
2023-03-05T12:40:29.088Z,1.83
2023-03-05T12:45:52.915Z,1.43
2023-03-05T12:51:29.482Z,2.10
2023-03-05T12:56:53.523Z,1.73
2023-03-05T13:02:34.568Z,1.80
2023-03-05T13:08:35.812Z,1.23
2023-03-05T13:13:59.824Z,1.20
2023-03-05T13:19:22.765Z,1.70
2023-03-05T13:24:44.904Z,1.40
2023-03-05T13:30:21.485Z,1.40
2023-03-05T13:35:46.275Z,0.90
2023-03-05T13:41:11.508Z,1.10
2023-03-05T13:46:39.286Z,1.20
2023-03-05T13:52:02.982Z,1.20
2023-03-05T13:57:40.632Z,1.50
2023-03-05T14:03:11.881Z,1.83
2023-03-05T14:08:34.268Z,1.20
2023-03-05T14:14:16.818Z,1.33
2023-03-05T14:19:39.763Z,1.00
2023-03-05T14:25:03.283Z,1.30
2023-03-05T14:30:26.493Z,1.47
2023-03-05T14:35:51.332Z,0.93
2023-03-05T14:41:32.452Z,1.20
2023-03-05T14:46:56.438Z,1.20
2023-03-05T14:52:22.018Z,1.20
2023-03-05T14:57:44.329Z,1.30
2023-03-05T15:03:07.350Z,1.20
2023-03-05T15:08:32.868Z,1.43
2023-03-05T15:13:55.075Z,1.60
2023-03-05T15:19:17.507Z,1.30
2023-03-05T15:24:39.961Z,1.43
2023-03-05T15:30:03.118Z,1.50
2023-03-05T15:35:25.800Z,1.30
2023-03-05T15:40:48.645Z,1.17
2023-03-05T15:46:11.150Z,1.10
2023-03-05T15:51:33.383Z,1.70
2023-03-05T15:56:55.554Z,1.63
2023-03-05T16:02:18.929Z,1.40
2023-03-05T16:07:46.039Z,1.47
2023-03-05T16:13:13.478Z,2.10
2023-03-05T16:18:41.953Z,1.70
2023-03-05T16:24:04.606Z,2.17
2023-03-05T16:29:30.786Z,2.10
2023-03-05T16:34:53.661Z,3.47
2023-03-05T16:40:16.330Z,3.53
2023-03-05T16:45:38.516Z,2.63
2023-03-05T16:51:00.755Z,2.20
2023-03-05T16:56:23.143Z,2.70
2023-03-05T17:01:45.682Z,2.77
2023-03-05T17:07:08.552Z,3.00
2023-03-05T17:12:33.214Z,3.20
2023-03-05T17:17:55.581Z,3.53
2023-03-05T17:23:18.235Z,2.87
2023-03-05T17:28:40.721Z,2.70
2023-03-05T17:34:03.459Z,2.53
2023-03-05T17:39:25.735Z,2.63
2023-03-05T17:50:13.611Z,3.30
2023-03-05T17:55:35.879Z,3.70
2023-03-05T18:01:00.401Z,4.13
2023-03-05T18:06:23.981Z,2.63
2023-03-05T18:11:46.418Z,2.57
2023-03-05T18:17:09.201Z,3.50
2023-03-05T18:22:31.492Z,3.50
2023-03-05T18:27:53.704Z,5.53
2023-03-05T18:33:22.718Z,6.93
2023-03-05T18:38:44.997Z,6.60
2023-03-05T18:44:08.549Z,6.33
2023-03-05T18:49:31.030Z,4.20
2023-03-05T18:54:53.234Z,4.13
2023-03-05T19:00:18.089Z,4.30
2023-03-05T19:05:43.557Z,4.33
2023-03-05T19:11:15.900Z,5.10
2023-03-05T19:16:43.871Z,4.10
2023-03-05T19:22:06.082Z,3.53
2023-03-05T19:27:29.083Z,7.17
2023-03-05T19:32:51.197Z,4.20
2023-03-05T19:38:13.525Z,5.00
2023-03-05T19:43:36.566Z,4.90
2023-03-05T19:48:59.021Z,4.60
2023-03-05T19:54:22.117Z,6.60
2023-03-05T19:59:46.905Z,3.97
2023-03-05T20:05:09.769Z,4.67
2023-03-05T20:10:32.453Z,3.43
2023-03-05T20:15:55.131Z,2.67
2023-03-05T20:21:21.576Z,3.77
2023-03-05T20:26:45.648Z,3.70
2023-03-05T20:32:08.252Z,4.00
2023-03-05T20:38:25.064Z,3.70
2023-03-05T20:43:50.195Z,3.20
2023-03-05T20:49:12.601Z,3.83
2023-03-05T20:54:34.762Z,4.20
2023-03-05T20:59:57.099Z,3.40
2023-03-05T21:05:20.269Z,4.00
2023-03-05T21:10:42.881Z,4.20
2023-03-05T21:16:10.163Z,4.27
2023-03-05T21:21:32.521Z,4.40
2023-03-05T21:26:54.912Z,4.30
2023-03-05T21:32:17.458Z,4.30
2023-03-05T21:37:42.597Z,4.10
2023-03-05T21:43:05.136Z,3.37
2023-03-05T21:48:27.555Z,4.20
2023-03-05T21:53:49.830Z,3.33
2023-03-05T21:59:12.046Z,4.03
2023-03-05T22:04:34.136Z,3.80
2023-03-05T22:09:57.497Z,3.80
2023-03-05T22:15:20.619Z,3.90
2023-03-05T22:20:43.743Z,4.00
2023-03-05T22:26:07.435Z,4.47
2023-03-05T22:31:30.587Z,3.77
2023-03-05T22:36:52.812Z,4.20
2023-03-05T22:42:15.431Z,4.30
2023-03-05T22:47:38.049Z,3.83
2023-03-05T22:53:00.290Z,4.53
2023-03-05T22:58:22.521Z,4.73
2023-03-05T23:04:28.975Z,4.10
2023-03-05T23:10:13.797Z,4.87
2023-03-05T23:15:38.002Z,5.07
2023-03-05T23:21:00.210Z,5.20
2023-03-05T23:26:24.931Z,5.17
2023-03-05T23:31:47.206Z,4.97
2023-03-05T23:37:09.559Z,4.80
2023-03-05T23:42:32.973Z,5.70
2023-03-05T23:47:55.531Z,5.73
2023-03-05T23:53:31.225Z,5.00
2023-03-05T23:58:56.147Z,5.93
